sensor_id;sensor_type;location;lat;lon;timestamp;P1;durP1;ratioP1;P2;durP2;ratioP2
39074;SDS011;24826;52.070;20.970;2022-10-17T00:01:24;23.30;;;17.17;;
39074;SDS011;24826;52.070;20.970;2022-10-17T00:04:09;20.83;;;16.80;;
39074;SDS011;24826;52.070;20.970;2022-10-17T00:06:53;24.70;;;16.98;;
39074;SDS011;24826;52.070;20.970;2022-10-17T00:09:40;21.67;;;16.63;;
39074;SDS011;24826;52.070;20.970;2022-10-17T00:12:26;24.67;;;17.77;;
39074;SDS011;24826;52.070;20.970;2022-10-17T00:15:14;24.83;;;16.80;;
39074;SDS011;24826;52.070;20.970;2022-10-17T00:17:59;22.98;;;15.80;;
39074;SDS011;24826;52.070;20.970;2022-10-17T00:20:43;24.85;;;16.35;;
39074;SDS011;24826;52.070;20.970;2022-10-17T00:23:27;23.33;;;16.85;;
39074;SDS011;24826;52.070;20.970;2022-10-17T00:26:14;24.95;;;17.42;;
39074;SDS011;24826;52.070;20.970;2022-10-17T00:28:59;23.45;;;16.65;;
39074;SDS011;24826;52.070;20.970;2022-10-17T00:31:43;26.45;;;17.55;;
39074;SDS011;24826;52.070;20.970;2022-10-17T00:34:27;26.33;;;17.92;;
39074;SDS011;24826;52.070;20.970;2022-10-17T00:37:12;25.35;;;17.65;;
39074;SDS011;24826;52.070;20.970;2022-10-17T00:39:56;21.45;;;17.08;;
39074;SDS011;24826;52.070;20.970;2022-10-17T00:42:41;25.08;;;17.58;;
39074;SDS011;24826;52.070;20.970;2022-10-17T00:45:27;25.63;;;17.27;;
39074;SDS011;24826;52.070;20.970;2022-10-17T00:48:14;23.40;;;17.38;;
39074;SDS011;24826;52.070;20.970;2022-10-17T00:50:59;25.13;;;17.27;;
39074;SDS011;24826;52.070;20.970;2022-10-17T00:53:43;25.98;;;17.88;;
39074;SDS011;24826;52.070;20.970;2022-10-17T00:56:28;24.42;;;16.92;;
39074;SDS011;24826;52.070;20.970;2022-10-17T00:59:13;26.52;;;18.35;;
39074;SDS011;24826;52.070;20.970;2022-10-17T01:02:02;24.75;;;16.50;;
39074;SDS011;24826;52.070;20.970;2022-10-17T01:04:49;25.13;;;17.98;;
39074;SDS011;24826;52.070;20.970;2022-10-17T01:07:36;25.38;;;15.80;;
39074;SDS011;24826;52.070;20.970;2022-10-17T01:10:25;25.23;;;17.70;;
39074;SDS011;24826;52.070;20.970;2022-10-17T01:13:20;27.00;;;17.58;;
39074;SDS011;24826;52.070;20.970;2022-10-17T01:16:13;25.27;;;17.60;;
39074;SDS011;24826;52.070;20.970;2022-10-17T01:22:27;25.08;;;16.88;;
39074;SDS011;24826;52.070;20.970;2022-10-17T01:31:13;22.25;;;16.80;;
39074;SDS011;24826;52.070;20.970;2022-10-17T01:34:01;25.75;;;17.33;;
39074;SDS011;24826;52.070;20.970;2022-10-17T01:37:39;27.58;;;17.42;;
39074;SDS011;24826;52.070;20.970;2022-10-17T01:40:08;25.75;;;17.92;;
39074;SDS011;24826;52.070;20.970;2022-10-17T01:45:57;24.60;;;18.02;;
39074;SDS011;24826;52.070;20.970;2022-10-17T01:48:46;27.88;;;18.83;;
39074;SDS011;24826;52.070;20.970;2022-10-17T01:51:38;27.17;;;18.95;;
39074;SDS011;24826;52.070;20.970;2022-10-17T01:54:41;24.88;;;18.20;;
39074;SDS011;24826;52.070;20.970;2022-10-17T01:57:32;28.50;;;19.25;;
39074;SDS011;24826;52.070;20.970;2022-10-17T02:00:21;27.33;;;18.38;;
39074;SDS011;24826;52.070;20.970;2022-10-17T02:03:11;28.77;;;19.10;;
39074;SDS011;24826;52.070;20.970;2022-10-17T02:05:58;26.58;;;18.65;;
39074;SDS011;24826;52.070;20.970;2022-10-17T02:08:43;26.55;;;18.85;;
39074;SDS011;24826;52.070;20.970;2022-10-17T02:11:31;25.25;;;18.10;;
39074;SDS011;24826;52.070;20.970;2022-10-17T02:14:25;23.98;;;18.40;;
39074;SDS011;24826;52.070;20.970;2022-10-17T02:17:57;27.50;;;18.65;;
39074;SDS011;24826;52.070;20.970;2022-10-17T02:27:12;27.70;;;18.88;;
39074;SDS011;24826;52.070;20.970;2022-10-17T02:30:09;25.38;;;17.98;;
39074;SDS011;24826;52.070;20.970;2022-10-17T02:33:00;24.27;;;17.35;;
39074;SDS011;24826;52.070;20.970;2022-10-17T02:38:36;24.73;;;17.42;;
39074;SDS011;24826;52.070;20.970;2022-10-17T02:41:23;25.17;;;18.23;;
39074;SDS011;24826;52.070;20.970;2022-10-17T02:44:08;25.77;;;19.20;;
39074;SDS011;24826;52.070;20.970;2022-10-17T02:47:30;29.45;;;17.52;;
39074;SDS011;24826;52.070;20.970;2022-10-17T02:50:07;25.23;;;17.65;;
39074;SDS011;24826;52.070;20.970;2022-10-17T02:52:57;25.90;;;18.48;;
39074;SDS011;24826;52.070;20.970;2022-10-17T02:55:49;27.42;;;19.00;;
39074;SDS011;24826;52.070;20.970;2022-10-17T02:58:37;24.60;;;18.02;;
39074;SDS011;24826;52.070;20.970;2022-10-17T03:01:23;23.63;;;17.48;;
39074;SDS011;24826;52.070;20.970;2022-10-17T03:04:09;24.83;;;17.90;;
39074;SDS011;24826;52.070;20.970;2022-10-17T03:06:55;26.10;;;18.77;;
39074;SDS011;24826;52.070;20.970;2022-10-17T03:09:39;27.00;;;17.58;;
39074;SDS011;24826;52.070;20.970;2022-10-17T03:12:23;24.92;;;17.80;;
39074;SDS011;24826;52.070;20.970;2022-10-17T03:15:08;24.45;;;17.67;;
39074;SDS011;24826;52.070;20.970;2022-10-17T03:17:53;25.90;;;18.70;;
39074;SDS011;24826;52.070;20.970;2022-10-17T03:20:37;24.25;;;17.90;;
39074;SDS011;24826;52.070;20.970;2022-10-17T03:23:21;24.75;;;18.95;;
39074;SDS011;24826;52.070;20.970;2022-10-17T03:26:06;26.60;;;18.52;;
39074;SDS011;24826;52.070;20.970;2022-10-17T03:28:51;24.52;;;17.23;;
39074;SDS011;24826;52.070;20.970;2022-10-17T03:31:35;24.67;;;18.05;;
39074;SDS011;24826;52.070;20.970;2022-10-17T03:34:21;30.15;;;18.52;;
39074;SDS011;24826;52.070;20.970;2022-10-17T03:37:08;26.08;;;19.40;;
39074;SDS011;24826;52.070;20.970;2022-10-17T03:39:53;28.08;;;18.48;;
39074;SDS011;24826;52.070;20.970;2022-10-17T03:42:37;25.75;;;19.33;;
39074;SDS011;24826;52.070;20.970;2022-10-17T03:45:22;30.45;;;19.30;;
39074;SDS011;24826;52.070;20.970;2022-10-17T03:48:06;31.38;;;19.23;;
39074;SDS011;24826;52.070;20.970;2022-10-17T03:50:50;27.05;;;19.88;;
39074;SDS011;24826;52.070;20.970;2022-10-17T03:53:35;27.38;;;19.90;;
39074;SDS011;24826;52.070;20.970;2022-10-17T03:56:23;32.17;;;20.35;;
39074;SDS011;24826;52.070;20.970;2022-10-17T03:59:10;28.17;;;19.80;;
39074;SDS011;24826;52.070;20.970;2022-10-17T04:01:56;26.83;;;19.48;;
39074;SDS011;24826;52.070;20.970;2022-10-17T04:04:40;32.67;;;21.02;;
39074;SDS011;24826;52.070;20.970;2022-10-17T04:07:25;29.17;;;20.35;;
39074;SDS011;24826;52.070;20.970;2022-10-17T04:10:10;27.98;;;20.35;;
39074;SDS011;24826;52.070;20.970;2022-10-17T04:12:55;28.27;;;21.00;;
39074;SDS011;24826;52.070;20.970;2022-10-17T04:15:39;26.67;;;20.27;;
39074;SDS011;24826;52.070;20.970;2022-10-17T04:18:23;29.52;;;20.65;;
39074;SDS011;24826;52.070;20.970;2022-10-17T04:21:08;30.10;;;20.90;;
39074;SDS011;24826;52.070;20.970;2022-10-17T04:23:54;34.30;;;22.33;;
39074;SDS011;24826;52.070;20.970;2022-10-17T04:26:40;35.17;;;20.48;;
39074;SDS011;24826;52.070;20.970;2022-10-17T04:29:24;28.55;;;20.83;;
39074;SDS011;24826;52.070;20.970;2022-10-17T04:32:09;29.80;;;20.08;;
39074;SDS011;24826;52.070;20.970;2022-10-17T04:34:54;28.90;;;20.75;;
39074;SDS011;24826;52.070;20.970;2022-10-17T04:37:38;32.63;;;21.13;;
39074;SDS011;24826;52.070;20.970;2022-10-17T04:40:23;30.02;;;21.48;;
39074;SDS011;24826;52.070;20.970;2022-10-17T04:43:07;28.17;;;20.20;;
39074;SDS011;24826;52.070;20.970;2022-10-17T04:45:51;27.52;;;20.30;;
39074;SDS011;24826;52.070;20.970;2022-10-17T04:48:35;30.02;;;21.27;;
39074;SDS011;24826;52.070;20.970;2022-10-17T04:51:21;30.10;;;19.95;;
39074;SDS011;24826;52.070;20.970;2022-10-17T04:54:05;27.98;;;19.77;;
39074;SDS011;24826;52.070;20.970;2022-10-17T04:56:50;29.70;;;20.48;;
39074;SDS011;24826;52.070;20.970;2022-10-17T04:59:34;28.50;;;20.35;;
39074;SDS011;24826;52.070;20.970;2022-10-17T05:02:18;26.58;;;19.50;;
39074;SDS011;24826;52.070;20.970;2022-10-17T05:05:02;31.02;;;21.08;;
39074;SDS011;24826;52.070;20.970;2022-10-17T05:07:47;29.80;;;20.40;;
39074;SDS011;24826;52.070;20.970;2022-10-17T05:10:35;30.20;;;19.90;;
39074;SDS011;24826;52.070;20.970;2022-10-17T05:13:23;29.60;;;21.02;;
39074;SDS011;24826;52.070;20.970;2022-10-17T05:16:07;30.17;;;21.10;;
39074;SDS011;24826;52.070;20.970;2022-10-17T05:18:53;30.38;;;21.25;;
39074;SDS011;24826;52.070;20.970;2022-10-17T05:21:39;32.33;;;20.95;;
39074;SDS011;24826;52.070;20.970;2022-10-17T05:24:24;31.33;;;22.95;;
39074;SDS011;24826;52.070;20.970;2022-10-17T05:27:08;33.17;;;21.40;;
39074;SDS011;24826;52.070;20.970;2022-10-17T05:29:52;36.22;;;22.17;;
39074;SDS011;24826;52.070;20.970;2022-10-17T05:32:37;34.50;;;22.60;;
39074;SDS011;24826;52.070;20.970;2022-10-17T05:35:21;27.85;;;20.95;;
39074;SDS011;24826;52.070;20.970;2022-10-17T05:38:06;36.05;;;23.02;;
39074;SDS011;24826;52.070;20.970;2022-10-17T05:40:50;33.80;;;21.52;;
39074;SDS011;24826;52.070;20.970;2022-10-17T05:43:34;46.72;;;22.33;;
39074;SDS011;24826;52.070;20.970;2022-10-17T05:46:18;31.25;;;21.88;;
39074;SDS011;24826;52.070;20.970;2022-10-17T05:49:03;33.63;;;21.75;;
39074;SDS011;24826;52.070;20.970;2022-10-17T05:51:47;32.20;;;21.27;;
39074;SDS011;24826;52.070;20.970;2022-10-17T05:54:32;34.15;;;21.13;;
39074;SDS011;24826;52.070;20.970;2022-10-17T05:57:16;36.70;;;23.15;;
39074;SDS011;24826;52.070;20.970;2022-10-17T06:00:00;29.08;;;21.42;;
39074;SDS011;24826;52.070;20.970;2022-10-17T06:02:47;35.17;;;22.55;;
39074;SDS011;24826;52.070;20.970;2022-10-17T06:05:33;30.98;;;22.60;;
39074;SDS011;24826;52.070;20.970;2022-10-17T06:08:18;30.70;;;21.48;;
39074;SDS011;24826;52.070;20.970;2022-10-17T06:11:02;34.10;;;22.85;;
39074;SDS011;24826;52.070;20.970;2022-10-17T06:13:47;31.88;;;21.30;;
39074;SDS011;24826;52.070;20.970;2022-10-17T06:16:31;38.85;;;23.10;;
39074;SDS011;24826;52.070;20.970;2022-10-17T06:19:16;31.33;;;22.80;;
39074;SDS011;24826;52.070;20.970;2022-10-17T06:22:00;31.98;;;22.83;;
39074;SDS011;24826;52.070;20.970;2022-10-17T06:24:45;31.20;;;22.05;;
39074;SDS011;24826;52.070;20.970;2022-10-17T06:27:29;31.30;;;22.42;;
39074;SDS011;24826;52.070;20.970;2022-10-17T06:30:13;35.28;;;23.98;;
39074;SDS011;24826;52.070;20.970;2022-10-17T06:32:57;32.00;;;22.13;;
39074;SDS011;24826;52.070;20.970;2022-10-17T06:35:42;33.25;;;22.25;;
39074;SDS011;24826;52.070;20.970;2022-10-17T06:38:26;32.40;;;23.02;;
39074;SDS011;24826;52.070;20.970;2022-10-17T06:41:14;34.15;;;21.80;;
39074;SDS011;24826;52.070;20.970;2022-10-17T06:44:01;33.88;;;23.00;;
39074;SDS011;24826;52.070;20.970;2022-10-17T06:46:52;33.65;;;22.25;;
39074;SDS011;24826;52.070;20.970;2022-10-17T06:49:36;36.22;;;22.30;;
39074;SDS011;24826;52.070;20.970;2022-10-17T06:52:21;34.25;;;24.15;;
39074;SDS011;24826;52.070;20.970;2022-10-17T06:55:05;30.00;;;22.20;;
39074;SDS011;24826;52.070;20.970;2022-10-17T06:57:50;35.35;;;23.98;;
39074;SDS011;24826;52.070;20.970;2022-10-17T07:00:36;32.75;;;23.58;;
39074;SDS011;24826;52.070;20.970;2022-10-17T07:03:21;30.45;;;22.73;;
39074;SDS011;24826;52.070;20.970;2022-10-17T07:06:06;33.92;;;24.63;;
39074;SDS011;24826;52.070;20.970;2022-10-17T07:08:50;33.10;;;22.90;;
39074;SDS011;24826;52.070;20.970;2022-10-17T07:11:35;33.08;;;22.98;;
39074;SDS011;24826;52.070;20.970;2022-10-17T07:14:20;35.78;;;23.90;;
39074;SDS011;24826;52.070;20.970;2022-10-17T07:17:04;33.17;;;22.63;;
39074;SDS011;24826;52.070;20.970;2022-10-17T07:19:48;29.42;;;22.05;;
39074;SDS011;24826;52.070;20.970;2022-10-17T07:22:33;31.65;;;22.40;;
39074;SDS011;24826;52.070;20.970;2022-10-17T07:25:17;35.70;;;23.05;;
39074;SDS011;24826;52.070;20.970;2022-10-17T07:28:01;32.88;;;21.50;;
39074;SDS011;24826;52.070;20.970;2022-10-17T07:30:47;32.58;;;22.30;;
39074;SDS011;24826;52.070;20.970;2022-10-17T07:33:31;33.60;;;22.83;;
39074;SDS011;24826;52.070;20.970;2022-10-17T07:36:16;29.40;;;21.27;;
39074;SDS011;24826;52.070;20.970;2022-10-17T07:39:01;29.05;;;21.83;;
39074;SDS011;24826;52.070;20.970;2022-10-17T07:41:45;30.88;;;20.98;;
39074;SDS011;24826;52.070;20.970;2022-10-17T07:44:32;28.40;;;21.77;;
39074;SDS011;24826;52.070;20.970;2022-10-17T07:47:16;26.42;;;20.98;;
39074;SDS011;24826;52.070;20.970;2022-10-17T07:50:01;29.05;;;21.92;;
39074;SDS011;24826;52.070;20.970;2022-10-17T07:52:47;33.55;;;20.23;;
39074;SDS011;24826;52.070;20.970;2022-10-17T07:55:31;31.23;;;21.60;;
39074;SDS011;24826;52.070;20.970;2022-10-17T07:58:16;29.85;;;21.20;;
39074;SDS011;24826;52.070;20.970;2022-10-17T08:01:01;29.75;;;21.73;;
39074;SDS011;24826;52.070;20.970;2022-10-17T08:03:47;31.77;;;21.40;;
39074;SDS011;24826;52.070;20.970;2022-10-17T08:06:31;28.05;;;21.45;;
39074;SDS011;24826;52.070;20.970;2022-10-17T08:09:15;33.15;;;22.00;;
39074;SDS011;24826;52.070;20.970;2022-10-17T08:11:59;29.17;;;21.73;;
39074;SDS011;24826;52.070;20.970;2022-10-17T08:14:44;28.27;;;19.63;;
39074;SDS011;24826;52.070;20.970;2022-10-17T08:17:28;32.35;;;21.38;;
39074;SDS011;24826;52.070;20.970;2022-10-17T08:20:13;26.40;;;20.33;;
39074;SDS011;24826;52.070;20.970;2022-10-17T08:22:57;27.92;;;20.77;;
39074;SDS011;24826;52.070;20.970;2022-10-17T08:25:42;27.20;;;19.13;;
39074;SDS011;24826;52.070;20.970;2022-10-17T08:28:26;29.77;;;20.15;;
39074;SDS011;24826;52.070;20.970;2022-10-17T08:31:12;27.60;;;19.58;;
39074;SDS011;24826;52.070;20.970;2022-10-17T08:34:01;26.63;;;18.58;;
39074;SDS011;24826;52.070;20.970;2022-10-17T08:36:45;26.33;;;19.27;;
39074;SDS011;24826;52.070;20.970;2022-10-17T08:39:29;26.60;;;19.33;;
39074;SDS011;24826;52.070;20.970;2022-10-17T08:42:27;26.70;;;19.25;;
39074;SDS011;24826;52.070;20.970;2022-10-17T08:48:28;27.55;;;18.55;;
39074;SDS011;24826;52.070;20.970;2022-10-17T08:51:16;22.05;;;17.67;;
39074;SDS011;24826;52.070;20.970;2022-10-17T08:54:15;27.20;;;18.90;;
39074;SDS011;24826;52.070;20.970;2022-10-17T08:57:07;26.00;;;18.92;;
39074;SDS011;24826;52.070;20.970;2022-10-17T08:59:55;27.13;;;18.52;;
39074;SDS011;24826;52.070;20.970;2022-10-17T09:05:49;27.98;;;18.45;;
39074;SDS011;24826;52.070;20.970;2022-10-17T09:08:54;23.48;;;16.88;;
39074;SDS011;24826;52.070;20.970;2022-10-17T09:18:10;23.65;;;17.13;;
39074;SDS011;24826;52.070;20.970;2022-10-17T09:24:03;25.67;;;17.73;;
39074;SDS011;24826;52.070;20.970;2022-10-17T09:26:55;21.23;;;16.52;;
39074;SDS011;24826;52.070;20.970;2022-10-17T09:29:39;26.25;;;17.02;;
39074;SDS011;24826;52.070;20.970;2022-10-17T09:32:27;27.85;;;16.88;;
39074;SDS011;24826;52.070;20.970;2022-10-17T09:35:14;22.92;;;16.65;;
39074;SDS011;24826;52.070;20.970;2022-10-17T09:38:00;24.80;;;16.38;;
39074;SDS011;24826;52.070;20.970;2022-10-17T09:40:45;21.90;;;16.10;;
39074;SDS011;24826;52.070;20.970;2022-10-17T09:43:34;21.85;;;15.50;;
39074;SDS011;24826;52.070;20.970;2022-10-17T09:46:31;21.55;;;14.85;;
39074;SDS011;24826;52.070;20.970;2022-10-17T09:49:22;28.55;;;15.55;;
39074;SDS011;24826;52.070;20.970;2022-10-17T09:52:19;21.75;;;15.23;;
39074;SDS011;24826;52.070;20.970;2022-10-17T09:55:19;22.70;;;15.00;;
39074;SDS011;24826;52.070;20.970;2022-10-17T09:58:09;23.27;;;16.88;;
39074;SDS011;24826;52.070;20.970;2022-10-17T10:00:54;20.63;;;15.93;;
39074;SDS011;24826;52.070;20.970;2022-10-17T10:07:01;21.38;;;16.08;;
39074;SDS011;24826;52.070;20.970;2022-10-17T10:09:55;21.85;;;15.82;;
39074;SDS011;24826;52.070;20.970;2022-10-17T10:12:40;21.55;;;16.35;;
39074;SDS011;24826;52.070;20.970;2022-10-17T10:15:45;22.17;;;16.20;;
39074;SDS011;24826;52.070;20.970;2022-10-17T10:18:32;22.23;;;15.48;;
39074;SDS011;24826;52.070;20.970;2022-10-17T10:21:19;19.83;;;14.35;;
39074;SDS011;24826;52.070;20.970;2022-10-17T10:27:00;28.65;;;16.13;;
39074;SDS011;24826;52.070;20.970;2022-10-17T10:29:50;22.38;;;15.52;;
39074;SDS011;24826;52.070;20.970;2022-10-17T10:32:35;20.23;;;15.07;;
39074;SDS011;24826;52.070;20.970;2022-10-17T10:35:38;22.45;;;16.10;;
39074;SDS011;24826;52.070;20.970;2022-10-17T10:38:22;21.25;;;14.95;;
39074;SDS011;24826;52.070;20.970;2022-10-17T10:41:08;22.38;;;15.75;;
39074;SDS011;24826;52.070;20.970;2022-10-17T10:43:54;21.90;;;15.70;;
39074;SDS011;24826;52.070;20.970;2022-10-17T10:46:39;24.27;;;16.33;;
39074;SDS011;24826;52.070;20.970;2022-10-17T10:49:30;21.70;;;15.45;;
39074;SDS011;24826;52.070;20.970;2022-10-17T10:52:20;22.23;;;15.27;;
39074;SDS011;24826;52.070;20.970;2022-10-17T10:58:31;24.15;;;15.70;;
39074;SDS011;24826;52.070;20.970;2022-10-17T11:01:34;20.48;;;15.75;;
39074;SDS011;24826;52.070;20.970;2022-10-17T11:04:41;30.48;;;17.45;;
39074;SDS011;24826;52.070;20.970;2022-10-17T11:13:36;21.70;;;15.85;;
39074;SDS011;24826;52.070;20.970;2022-10-17T11:22:29;23.58;;;15.82;;
39074;SDS011;24826;52.070;20.970;2022-10-17T11:25:33;23.75;;;16.30;;
39074;SDS011;24826;52.070;20.970;2022-10-17T11:28:19;23.80;;;14.98;;
39074;SDS011;24826;52.070;20.970;2022-10-17T11:31:07;22.67;;;15.55;;
39074;SDS011;24826;52.070;20.970;2022-10-17T11:33:56;19.48;;;14.68;;
39074;SDS011;24826;52.070;20.970;2022-10-17T11:36:49;21.02;;;15.40;;
39074;SDS011;24826;52.070;20.970;2022-10-17T11:42:40;19.17;;;14.60;;
39074;SDS011;24826;52.070;20.970;2022-10-17T11:45:34;18.85;;;15.23;;
39074;SDS011;24826;52.070;20.970;2022-10-17T11:51:13;19.92;;;14.93;;
39074;SDS011;24826;52.070;20.970;2022-10-17T11:56:57;20.30;;;14.75;;
39074;SDS011;24826;52.070;20.970;2022-10-17T11:59:59;23.10;;;14.70;;
39074;SDS011;24826;52.070;20.970;2022-10-17T12:14:44;20.92;;;15.02;;
39074;SDS011;24826;52.070;20.970;2022-10-17T12:17:33;21.35;;;15.63;;
39074;SDS011;24826;52.070;20.970;2022-10-17T12:20:25;18.40;;;13.18;;
39074;SDS011;24826;52.070;20.970;2022-10-17T12:26:01;25.08;;;15.95;;
39074;SDS011;24826;52.070;20.970;2022-10-17T12:28:47;19.02;;;14.60;;
39074;SDS011;24826;52.070;20.970;2022-10-17T12:31:31;20.73;;;15.30;;
39074;SDS011;24826;52.070;20.970;2022-10-17T12:34:16;21.60;;;15.13;;
39074;SDS011;24826;52.070;20.970;2022-10-17T12:37:09;19.45;;;14.95;;
39074;SDS011;24826;52.070;20.970;2022-10-17T12:39:54;19.50;;;14.98;;
39074;SDS011;24826;52.070;20.970;2022-10-17T12:42:46;20.92;;;14.07;;
39074;SDS011;24826;52.070;20.970;2022-10-17T12:51:23;17.80;;;13.75;;
39074;SDS011;24826;52.070;20.970;2022-10-17T12:54:09;17.60;;;14.27;;
39074;SDS011;24826;52.070;20.970;2022-10-17T12:56:56;22.42;;;15.18;;
39074;SDS011;24826;52.070;20.970;2022-10-17T12:59:42;19.98;;;13.57;;
39074;SDS011;24826;52.070;20.970;2022-10-17T13:02:27;19.45;;;14.32;;
39074;SDS011;24826;52.070;20.970;2022-10-17T13:05:15;18.50;;;14.30;;
39074;SDS011;24826;52.070;20.970;2022-10-17T13:08:05;19.50;;;14.65;;
39074;SDS011;24826;52.070;20.970;2022-10-17T13:10:57;19.10;;;14.45;;
39074;SDS011;24826;52.070;20.970;2022-10-17T13:16:33;19.45;;;14.27;;
39074;SDS011;24826;52.070;20.970;2022-10-17T13:19:24;22.20;;;15.52;;
39074;SDS011;24826;52.070;20.970;2022-10-17T13:22:13;20.52;;;14.32;;
39074;SDS011;24826;52.070;20.970;2022-10-17T13:25:08;19.92;;;14.20;;
39074;SDS011;24826;52.070;20.970;2022-10-17T13:28:10;21.02;;;14.70;;
39074;SDS011;24826;52.070;20.970;2022-10-17T13:30:57;19.10;;;14.07;;
39074;SDS011;24826;52.070;20.970;2022-10-17T13:33:41;20.05;;;15.20;;
39074;SDS011;24826;52.070;20.970;2022-10-17T13:36:26;21.33;;;15.40;;
39074;SDS011;24826;52.070;20.970;2022-10-17T13:39:16;18.65;;;14.90;;
39074;SDS011;24826;52.070;20.970;2022-10-17T13:42:02;22.17;;;14.52;;
39074;SDS011;24826;52.070;20.970;2022-10-17T13:44:47;20.38;;;14.38;;
39074;SDS011;24826;52.070;20.970;2022-10-17T13:47:34;19.13;;;14.48;;
39074;SDS011;24826;52.070;20.970;2022-10-17T13:50:39;20.60;;;14.27;;
39074;SDS011;24826;52.070;20.970;2022-10-17T13:56:23;18.88;;;14.95;;
39074;SDS011;24826;52.070;20.970;2022-10-17T13:59:22;19.45;;;14.63;;
39074;SDS011;24826;52.070;20.970;2022-10-17T14:02:18;19.90;;;14.27;;
39074;SDS011;24826;52.070;20.970;2022-10-17T14:05:16;19.65;;;14.18;;
39074;SDS011;24826;52.070;20.970;2022-10-17T14:08:02;20.33;;;15.10;;
39074;SDS011;24826;52.070;20.970;2022-10-17T14:10:47;21.98;;;14.55;;
39074;SDS011;24826;52.070;20.970;2022-10-17T14:13:31;21.67;;;14.85;;
39074;SDS011;24826;52.070;20.970;2022-10-17T14:16:18;28.10;;;15.52;;
39074;SDS011;24826;52.070;20.970;2022-10-17T14:19:04;21.75;;;14.73;;
39074;SDS011;24826;52.070;20.970;2022-10-17T14:22:45;18.40;;;14.82;;
39074;SDS011;24826;52.070;20.970;2022-10-17T14:25:03;20.38;;;15.20;;
39074;SDS011;24826;52.070;20.970;2022-10-17T14:27:52;26.17;;;15.80;;
39074;SDS011;24826;52.070;20.970;2022-10-17T14:30:47;23.45;;;15.68;;
39074;SDS011;24826;52.070;20.970;2022-10-17T14:33:35;20.45;;;15.48;;
39074;SDS011;24826;52.070;20.970;2022-10-17T14:36:28;23.08;;;16.33;;
39074;SDS011;24826;52.070;20.970;2022-10-17T14:39:18;20.50;;;15.25;;
39074;SDS011;24826;52.070;20.970;2022-10-17T14:42:14;23.08;;;14.95;;
39074;SDS011;24826;52.070;20.970;2022-10-17T14:45:05;24.23;;;16.77;;
39074;SDS011;24826;52.070;20.970;2022-10-17T14:47:55;24.65;;;17.00;;
39074;SDS011;24826;52.070;20.970;2022-10-17T14:57:08;26.52;;;16.50;;
39074;SDS011;24826;52.070;20.970;2022-10-17T15:00:01;25.15;;;16.08;;
39074;SDS011;24826;52.070;20.970;2022-10-17T15:02:46;27.30;;;17.33;;
39074;SDS011;24826;52.070;20.970;2022-10-17T15:05:31;22.55;;;16.92;;
39074;SDS011;24826;52.070;20.970;2022-10-17T15:08:18;26.60;;;16.95;;
39074;SDS011;24826;52.070;20.970;2022-10-17T15:11:04;24.05;;;16.85;;
39074;SDS011;24826;52.070;20.970;2022-10-17T15:13:49;26.10;;;17.35;;
39074;SDS011;24826;52.070;20.970;2022-10-17T15:16:33;39.60;;;18.13;;
39074;SDS011;24826;52.070;20.970;2022-10-17T15:19:19;26.90;;;17.83;;
39074;SDS011;24826;52.070;20.970;2022-10-17T15:22:03;30.40;;;18.45;;
39074;SDS011;24826;52.070;20.970;2022-10-17T15:24:48;25.70;;;18.73;;
39074;SDS011;24826;52.070;20.970;2022-10-17T15:27:33;28.67;;;21.25;;
39074;SDS011;24826;52.070;20.970;2022-10-17T15:30:19;34.83;;;21.63;;
39074;SDS011;24826;52.070;20.970;2022-10-17T15:33:06;28.88;;;19.55;;
39074;SDS011;24826;52.070;20.970;2022-10-17T15:35:50;30.73;;;20.20;;
39074;SDS011;24826;52.070;20.970;2022-10-17T15:38:35;29.05;;;18.88;;
39074;SDS011;24826;52.070;20.970;2022-10-17T15:41:19;31.45;;;20.05;;
39074;SDS011;24826;52.070;20.970;2022-10-17T15:44:05;31.60;;;19.58;;
39074;SDS011;24826;52.070;20.970;2022-10-17T15:46:49;30.25;;;19.27;;
39074;SDS011;24826;52.070;20.970;2022-10-17T15:49:34;35.78;;;20.45;;
39074;SDS011;24826;52.070;20.970;2022-10-17T15:52:18;33.17;;;19.33;;
39074;SDS011;24826;52.070;20.970;2022-10-17T15:55:03;26.17;;;18.15;;
39074;SDS011;24826;52.070;20.970;2022-10-17T15:57:47;32.67;;;18.60;;
39074;SDS011;24826;52.070;20.970;2022-10-17T16:00:32;32.90;;;19.08;;
39074;SDS011;24826;52.070;20.970;2022-10-17T16:03:17;29.13;;;18.70;;
39074;SDS011;24826;52.070;20.970;2022-10-17T16:06:01;27.73;;;18.88;;
39074;SDS011;24826;52.070;20.970;2022-10-17T16:08:50;29.75;;;19.48;;
39074;SDS011;24826;52.070;20.970;2022-10-17T16:11:35;29.00;;;19.52;;
39074;SDS011;24826;52.070;20.970;2022-10-17T16:14:21;29.63;;;18.27;;
39074;SDS011;24826;52.070;20.970;2022-10-17T16:17:07;31.38;;;19.30;;
39074;SDS011;24826;52.070;20.970;2022-10-17T16:19:56;29.98;;;17.60;;
39074;SDS011;24826;52.070;20.970;2022-10-17T16:22:41;26.27;;;18.10;;
39074;SDS011;24826;52.070;20.970;2022-10-17T16:25:28;25.98;;;17.55;;
39074;SDS011;24826;52.070;20.970;2022-10-17T16:28:13;25.55;;;17.80;;
39074;SDS011;24826;52.070;20.970;2022-10-17T16:30:57;28.27;;;18.67;;
39074;SDS011;24826;52.070;20.970;2022-10-17T16:33:41;27.20;;;17.90;;
39074;SDS011;24826;52.070;20.970;2022-10-17T16:36:26;25.83;;;18.10;;
39074;SDS011;24826;52.070;20.970;2022-10-17T16:39:10;29.10;;;18.33;;
39074;SDS011;24826;52.070;20.970;2022-10-17T16:41:55;31.02;;;18.48;;
39074;SDS011;24826;52.070;20.970;2022-10-17T16:44:39;25.20;;;18.17;;
39074;SDS011;24826;52.070;20.970;2022-10-17T16:47:23;24.17;;;18.20;;
39074;SDS011;24826;52.070;20.970;2022-10-17T16:50:08;23.85;;;18.48;;
39074;SDS011;24826;52.070;20.970;2022-10-17T16:52:52;23.10;;;17.55;;
39074;SDS011;24826;52.070;20.970;2022-10-17T16:55:36;25.63;;;18.88;;
39074;SDS011;24826;52.070;20.970;2022-10-17T16:58:23;26.33;;;18.95;;
39074;SDS011;24826;52.070;20.970;2022-10-17T17:01:11;29.52;;;17.67;;
39074;SDS011;24826;52.070;20.970;2022-10-17T17:04:00;25.02;;;18.35;;
39074;SDS011;24826;52.070;20.970;2022-10-17T17:06:47;28.00;;;18.45;;
39074;SDS011;24826;52.070;20.970;2022-10-17T17:09:32;25.05;;;17.98;;
39074;SDS011;24826;52.070;20.970;2022-10-17T17:12:16;27.52;;;19.40;;
39074;SDS011;24826;52.070;20.970;2022-10-17T17:15:00;27.92;;;18.13;;
39074;SDS011;24826;52.070;20.970;2022-10-17T17:17:45;27.88;;;18.88;;
39074;SDS011;24826;52.070;20.970;2022-10-17T17:20:30;25.35;;;18.73;;
39074;SDS011;24826;52.070;20.970;2022-10-17T17:23:15;24.73;;;17.92;;
39074;SDS011;24826;52.070;20.970;2022-10-17T17:26:01;24.92;;;18.48;;
39074;SDS011;24826;52.070;20.970;2022-10-17T17:28:48;25.42;;;19.15;;
39074;SDS011;24826;52.070;20.970;2022-10-17T17:31:33;25.73;;;18.75;;
39074;SDS011;24826;52.070;20.970;2022-10-17T17:34:18;27.25;;;18.75;;
39074;SDS011;24826;52.070;20.970;2022-10-17T17:37:03;26.73;;;19.77;;
39074;SDS011;24826;52.070;20.970;2022-10-17T17:39:47;23.52;;;18.65;;
39074;SDS011;24826;52.070;20.970;2022-10-17T17:42:32;26.83;;;18.30;;
39074;SDS011;24826;52.070;20.970;2022-10-17T17:45:16;27.15;;;19.08;;